createdAt,value
2023-08-28T00:00:42.313Z,10.40
2023-08-28T00:03:09.931Z,12.90
2023-08-28T00:05:37.638Z,11.40
2023-08-28T00:08:09.338Z,11.00
2023-08-28T00:10:38.324Z,11.10
2023-08-28T00:13:05.930Z,13.10
2023-08-28T00:15:33.514Z,12.20
2023-08-28T00:18:01.401Z,11.20
2023-08-28T00:20:29.178Z,11.90
2023-08-28T00:22:56.800Z,10.70
2023-08-28T00:25:24.304Z,12.20
2023-08-28T00:27:51.775Z,11.50
2023-08-28T00:30:19.422Z,11.60
2023-08-28T00:32:47.004Z,14.50
2023-08-28T00:35:14.672Z,13.50
2023-08-28T00:37:42.531Z,11.50
2023-08-28T00:40:14.604Z,12.10
2023-08-28T00:42:42.276Z,11.60
2023-08-28T00:45:10.735Z,10.90
2023-08-28T00:47:38.402Z,11.60
2023-08-28T00:50:06.420Z,12.30
2023-08-28T00:52:33.935Z,12.90
2023-08-28T00:55:01.512Z,10.70
2023-08-28T00:57:29.648Z,11.20
2023-08-28T00:59:57.193Z,11.50
2023-08-28T01:02:24.866Z,11.90
2023-08-28T01:04:54.041Z,12.40
2023-08-28T01:07:27.249Z,13.00
2023-08-28T01:10:16.473Z,13.30
2023-08-28T01:12:52.112Z,13.30
2023-08-28T01:15:21.765Z,21.50
2023-08-28T01:17:55.764Z,14.00
2023-08-28T01:20:25.380Z,17.20
2023-08-28T01:22:59.273Z,15.10
2023-08-28T01:25:26.961Z,15.20
2023-08-28T01:27:54.502Z,16.50
2023-08-28T01:30:22.448Z,16.80
2023-08-28T01:32:50.129Z,19.10
2023-08-28T01:35:21.885Z,18.40
2023-08-28T01:38:01.841Z,19.80
2023-08-28T01:41:00.610Z,19.60
2023-08-28T01:43:44.133Z,19.00
2023-08-28T01:46:11.768Z,20.30
2023-08-28T01:48:49.197Z,20.30
2023-08-28T01:51:17.947Z,20.90
2023-08-28T01:53:46.277Z,19.50
2023-08-28T01:56:23.739Z,19.20
2023-08-28T01:58:58.193Z,19.30
2023-08-28T02:01:26.781Z,19.20
2023-08-28T02:03:54.550Z,17.80
2023-08-28T02:06:22.141Z,18.50
2023-08-28T02:08:49.704Z,18.20
2023-08-28T02:11:18.655Z,18.40
2023-08-28T02:13:46.528Z,18.40
2023-08-28T02:16:14.490Z,18.50
2023-08-28T02:18:42.535Z,18.10
2023-08-28T02:21:11.755Z,18.50
2023-08-28T02:23:39.580Z,19.00
2023-08-28T02:26:07.198Z,18.60
2023-08-28T02:28:34.813Z,19.80
2023-08-28T02:31:04.974Z,18.40
2023-08-28T02:33:33.261Z,18.90
2023-08-28T02:36:02.885Z,19.90
2023-08-28T02:38:30.600Z,18.50
2023-08-28T02:41:16.468Z,18.70
2023-08-28T02:43:44.765Z,20.40
2023-08-28T02:46:12.578Z,19.80
2023-08-28T02:48:40.130Z,20.80
2023-08-28T02:51:08.882Z,19.90
2023-08-28T02:53:36.449Z,21.30
2023-08-28T02:56:26.330Z,20.10
2023-08-28T02:58:54.674Z,20.50
2023-08-28T03:01:22.540Z,20.40
2023-08-28T03:03:50.454Z,20.40
2023-08-28T03:06:18.125Z,20.20
2023-08-28T03:08:45.888Z,22.20
2023-08-28T03:11:13.466Z,22.20
2023-08-28T03:13:41.032Z,20.70
2023-08-28T03:16:08.685Z,21.90
2023-08-28T03:18:36.350Z,21.20
2023-08-28T03:21:04.476Z,21.40
2023-08-28T03:23:32.256Z,21.00
2023-08-28T03:26:00.555Z,21.30
2023-08-28T03:28:28.160Z,19.60
2023-08-28T03:30:59.794Z,19.40
2023-08-28T03:35:54.792Z,18.20
2023-08-28T03:38:23.775Z,18.20
2023-08-28T03:40:51.321Z,19.10
2023-08-28T03:43:19.767Z,19.60
2023-08-28T03:45:47.383Z,18.40
2023-08-28T03:48:14.953Z,18.60
2023-08-28T03:50:42.549Z,18.10
2023-08-28T03:53:10.107Z,18.00
2023-08-28T03:55:39.338Z,18.20
2023-08-28T03:58:06.905Z,18.20
2023-08-28T04:00:34.454Z,18.00
2023-08-28T04:03:02.301Z,18.60
2023-08-28T04:05:34.284Z,18.30
2023-08-28T04:08:02.019Z,19.60
2023-08-28T04:10:29.640Z,19.70
2023-08-28T04:12:59.792Z,20.50
2023-08-28T04:15:27.341Z,19.90
2023-08-28T04:17:54.946Z,20.20
2023-08-28T04:20:23.027Z,20.30
2023-08-28T04:22:50.553Z,21.20
2023-08-28T04:25:18.110Z,19.50
2023-08-28T04:27:45.669Z,20.80
2023-08-28T04:30:13.399Z,22.00
2023-08-28T04:32:40.914Z,21.70
2023-08-28T04:35:08.938Z,21.90
2023-08-28T04:37:36.541Z,21.20
2023-08-28T04:40:04.512Z,21.50
2023-08-28T04:42:32.115Z,22.40
2023-08-28T04:44:59.672Z,23.60
2023-08-28T04:47:28.284Z,23.30
2023-08-28T04:49:55.869Z,22.60
2023-08-28T04:52:23.619Z,23.20
2023-08-28T04:54:51.198Z,24.80
2023-08-28T04:57:18.780Z,23.30
2023-08-28T04:59:46.434Z,24.70
2023-08-28T05:02:13.989Z,23.90
2023-08-28T05:04:41.668Z,24.10
2023-08-28T05:07:09.455Z,24.10
2023-08-28T05:09:37.031Z,25.00
2023-08-28T05:12:04.877Z,24.10
2023-08-28T05:14:33.338Z,23.90
2023-08-28T05:17:00.969Z,23.70
2023-08-28T05:19:28.598Z,22.70
2023-08-28T05:21:57.085Z,22.40
2023-08-28T05:24:24.600Z,22.00
2023-08-28T05:26:52.238Z,21.80
2023-08-28T05:29:19.766Z,21.80
2023-08-28T05:31:47.401Z,22.20
2023-08-28T05:34:16.600Z,21.80
2023-08-28T05:36:44.230Z,21.40
2023-08-28T05:39:11.844Z,20.40
2023-08-28T05:41:39.610Z,19.50
2023-08-28T05:44:09.917Z,19.50
2023-08-28T05:46:37.548Z,18.60
2023-08-28T05:49:05.295Z,19.80
2023-08-28T05:51:32.857Z,18.90
2023-08-28T05:54:00.392Z,19.30
2023-08-28T05:56:27.935Z,19.90
2023-08-28T05:58:55.554Z,19.40
2023-08-28T06:01:23.255Z,16.70
2023-08-28T06:03:57.478Z,18.50
2023-08-28T06:06:25.280Z,17.70
2023-08-28T06:08:52.852Z,17.80
2023-08-28T06:11:24.623Z,16.40
2023-08-28T06:13:52.233Z,17.60
2023-08-28T06:16:19.902Z,17.50
2023-08-28T06:18:47.437Z,15.80
2023-08-28T06:21:14.939Z,15.60
2023-08-28T06:23:42.484Z,15.30
2023-08-28T06:26:10.073Z,15.40
2023-08-28T06:28:37.615Z,14.50
2023-08-28T06:31:05.396Z,14.70
2023-08-28T06:33:33.117Z,14.40
2023-08-28T06:36:00.782Z,14.70
2023-08-28T06:38:29.011Z,14.90
2023-08-28T06:40:57.312Z,15.20
2023-08-28T06:43:24.914Z,14.50
2023-08-28T06:45:52.457Z,13.80
2023-08-28T06:48:20.048Z,13.90
2023-08-28T06:50:47.615Z,14.10
2023-08-28T06:53:15.156Z,13.30
2023-08-28T06:55:42.711Z,11.80
2023-08-28T06:58:10.340Z,12.50
2023-08-28T07:00:38.045Z,14.10
2023-08-28T07:03:05.979Z,13.60
2023-08-28T07:05:33.891Z,12.60
2023-08-28T07:08:01.482Z,14.20
2023-08-28T07:10:29.086Z,12.40
2023-08-28T07:12:56.614Z,13.70
2023-08-28T07:15:27.323Z,13.50
2023-08-28T07:17:54.976Z,15.10
2023-08-28T07:20:24.485Z,14.40
2023-08-28T07:22:58.738Z,14.80
2023-08-28T07:25:29.399Z,12.80
2023-08-28T07:27:57.141Z,13.20
2023-08-28T07:30:24.746Z,12.50
2023-08-28T07:32:53.368Z,12.20
2023-08-28T07:35:20.952Z,11.00
2023-08-28T07:37:48.507Z,10.70
2023-08-28T07:40:16.134Z,12.20
2023-08-28T07:42:43.728Z,11.80
2023-08-28T07:45:11.434Z,12.50
2023-08-28T07:47:39.634Z,11.60
2023-08-28T07:50:07.561Z,11.30
2023-08-28T07:52:35.393Z,12.60
2023-08-28T07:55:04.531Z,10.70
2023-08-28T07:57:35.813Z,10.30
2023-08-28T08:00:12.040Z,10.90
2023-08-28T08:02:42.510Z,11.20
2023-08-28T08:05:11.915Z,9.10
2023-08-28T08:07:42.529Z,9.90
2023-08-28T08:10:11.407Z,9.00
2023-08-28T08:12:39.705Z,9.40
2023-08-28T08:15:08.241Z,10.80
2023-08-28T08:17:37.818Z,9.80
2023-08-28T08:20:11.114Z,9.40
2023-08-28T08:22:39.509Z,12.70
2023-08-28T08:25:07.741Z,9.90
2023-08-28T08:27:36.029Z,9.90
2023-08-28T08:30:03.848Z,11.10
2023-08-28T08:32:31.407Z,9.70
2023-08-28T08:35:01.924Z,10.00
2023-08-28T08:37:29.480Z,10.30
2023-08-28T08:39:57.065Z,10.90
2023-08-28T08:42:24.700Z,10.40
2023-08-28T08:44:52.349Z,11.50
2023-08-28T08:47:19.899Z,12.20
2023-08-28T08:49:48.070Z,10.00
2023-08-28T08:52:17.027Z,10.00
2023-08-28T08:54:44.848Z,10.20
2023-08-28T08:57:24.124Z,10.00
2023-08-28T08:59:51.884Z,10.00
2023-08-28T09:02:19.495Z,8.80
2023-08-28T09:04:47.187Z,11.60
2023-08-28T09:07:14.891Z,8.30
2023-08-28T09:09:42.436Z,10.50
2023-08-28T09:12:10.240Z,10.80
2023-08-28T09:14:40.613Z,14.00
2023-08-28T09:17:08.588Z,9.80
2023-08-28T09:19:36.176Z,12.20
2023-08-28T09:22:04.855Z,9.10
2023-08-28T09:24:32.492Z,10.00
2023-08-28T09:27:00.817Z,7.90
2023-08-28T09:29:28.422Z,8.60
2023-08-28T09:32:05.414Z,6.80
2023-08-28T09:34:40.515Z,8.40
2023-08-28T09:37:11.992Z,10.70
2023-08-28T09:39:40.945Z,13.20
2023-08-28T09:42:09.935Z,8.90
2023-08-28T09:44:38.754Z,7.90
2023-08-28T09:47:06.729Z,8.40
2023-08-28T09:49:44.114Z,7.50
2023-08-28T09:52:12.397Z,8.60
2023-08-28T09:54:40.746Z,10.80
2023-08-28T09:57:17.640Z,8.90
2023-08-28T09:59:45.414Z,10.70
2023-08-28T10:02:21.031Z,10.80
2023-08-28T10:04:53.374Z,11.40
2023-08-28T10:07:23.276Z,11.00
2023-08-28T10:09:52.375Z,11.50
2023-08-28T10:12:21.906Z,10.10
2023-08-28T10:14:50.903Z,10.20
2023-08-28T10:17:19.190Z,10.90
2023-08-28T10:19:56.214Z,8.80
2023-08-28T10:22:23.820Z,8.50
2023-08-28T10:24:51.377Z,10.10
2023-08-28T10:27:18.938Z,9.50
2023-08-28T10:29:47.565Z,8.90
2023-08-28T10:32:15.424Z,11.00
2023-08-28T10:34:46.330Z,8.70
2023-08-28T10:39:59.959Z,10.30
2023-08-28T10:44:58.073Z,8.20
2023-08-28T10:47:26.886Z,7.50
2023-08-28T10:49:56.628Z,8.10
2023-08-28T10:52:24.875Z,6.50
2023-08-28T10:54:52.500Z,7.90
2023-08-28T10:57:40.807Z,7.40
2023-08-28T11:00:15.970Z,9.70
2023-08-28T11:03:03.835Z,8.90
2023-08-28T11:05:31.724Z,7.60
2023-08-28T11:08:05.178Z,8.80
2023-08-28T11:10:32.883Z,9.80
2023-08-28T11:13:07.387Z,8.30
2023-08-28T11:15:44.429Z,7.80
2023-08-28T11:18:25.473Z,8.40
2023-08-28T11:21:04.653Z,7.40
2023-08-28T11:23:37.818Z,8.80
2023-08-28T11:26:22.171Z,7.10
2023-08-28T11:28:50.660Z,8.80
2023-08-28T11:31:21.076Z,9.30
2023-08-28T11:33:53.253Z,7.30
2023-08-28T11:36:20.882Z,9.00
2023-08-28T11:38:48.859Z,7.50
2023-08-28T11:41:16.441Z,8.30
2023-08-28T11:43:44.673Z,8.10
2023-08-28T11:46:13.548Z,8.60
2023-08-28T11:48:44.413Z,8.40
2023-08-28T11:51:12.394Z,11.60
2023-08-28T11:53:43.998Z,8.40
2023-08-28T11:56:13.394Z,8.20
2023-08-28T11:58:42.359Z,11.90
2023-08-28T12:01:11.907Z,9.70
2023-08-28T12:03:41.394Z,8.10
2023-08-28T12:06:10.097Z,10.90
2023-08-28T12:08:38.287Z,8.30
2023-08-28T12:11:10.230Z,10.00
2023-08-28T12:13:38.420Z,9.50
2023-08-28T12:16:07.877Z,9.40
2023-08-28T12:18:45.452Z,9.10
2023-08-28T12:21:13.010Z,9.30
2023-08-28T12:23:48.344Z,11.40
2023-08-28T12:26:17.868Z,9.40
2023-08-28T12:28:47.630Z,12.40
2023-08-28T12:31:16.120Z,10.20
2023-08-28T12:33:44.478Z,8.40
2023-08-28T12:36:12.897Z,10.30
2023-08-28T12:38:50.718Z,7.80
2023-08-28T12:41:19.061Z,10.30
2023-08-28T12:43:47.040Z,10.00
2023-08-28T12:46:15.426Z,9.60
2023-08-28T12:48:44.890Z,12.30
2023-08-28T12:51:12.430Z,10.80
2023-08-28T12:53:40.363Z,9.00
2023-08-28T12:56:08.309Z,11.70
2023-08-28T12:58:35.865Z,10.10
2023-08-28T13:01:05.597Z,9.20
2023-08-28T13:03:35.729Z,7.90
2023-08-28T13:06:03.600Z,11.30
2023-08-28T13:08:31.251Z,9.90
2023-08-28T13:10:58.860Z,11.10
2023-08-28T13:13:28.016Z,9.30
2023-08-28T13:15:56.341Z,9.50
2023-08-28T13:18:23.997Z,11.40
2023-08-28T13:20:51.601Z,9.10
2023-08-28T13:23:19.161Z,8.70
2023-08-28T13:25:47.293Z,10.70
2023-08-28T13:28:15.778Z,9.00
2023-08-28T13:30:43.485Z,9.70
2023-08-28T13:33:11.483Z,9.70
2023-08-28T13:35:39.102Z,10.00
2023-08-28T13:38:06.933Z,7.80
2023-08-28T13:40:35.163Z,10.00
2023-08-28T13:43:06.142Z,11.20
2023-08-28T13:45:34.928Z,10.70
2023-08-28T13:48:02.708Z,10.90
2023-08-28T13:50:30.338Z,9.60
2023-08-28T13:52:58.016Z,10.50
2023-08-28T13:55:25.583Z,9.60
2023-08-28T13:57:53.241Z,9.30
2023-08-28T14:00:23.171Z,7.90
2023-08-28T14:02:50.878Z,11.70
2023-08-28T14:05:19.063Z,10.10
2023-08-28T14:07:46.711Z,12.20
2023-08-28T14:10:14.313Z,8.20
2023-08-28T14:12:41.968Z,9.10
2023-08-28T14:15:09.787Z,8.90
2023-08-28T14:17:37.419Z,10.10
2023-08-28T14:20:06.067Z,9.40
2023-08-28T14:22:33.982Z,9.20
2023-08-28T14:25:01.633Z,9.70
2023-08-28T14:27:35.189Z,10.30
2023-08-28T14:30:14.458Z,8.90
2023-08-28T14:32:42.048Z,8.70
2023-08-28T14:35:10.944Z,10.00
2023-08-28T14:37:38.527Z,8.20
2023-08-28T14:40:07.197Z,7.50
2023-08-28T14:42:35.033Z,7.60
2023-08-28T14:45:02.617Z,8.50
2023-08-28T14:47:30.302Z,10.40
2023-08-28T14:49:57.896Z,9.00
2023-08-28T14:52:28.143Z,10.50
2023-08-28T14:54:55.879Z,8.90
2023-08-28T14:57:23.524Z,11.00
2023-08-28T14:59:51.146Z,8.90
2023-08-28T15:02:19.004Z,8.50
2023-08-28T15:04:47.878Z,8.50
2023-08-28T15:07:16.841Z,8.50
2023-08-28T15:09:44.467Z,10.40
2023-08-28T15:12:13.164Z,9.30
2023-08-28T15:14:42.382Z,9.50
2023-08-28T15:17:11.594Z,12.00
2023-08-28T15:19:39.408Z,8.20
2023-08-28T15:22:07.079Z,8.30
2023-08-28T15:24:35.965Z,8.70
2023-08-28T15:27:04.476Z,10.40
2023-08-28T15:29:32.181Z,11.40
2023-08-28T15:31:59.673Z,9.30
2023-08-28T15:34:27.169Z,8.30
2023-08-28T15:36:55.189Z,11.60
2023-08-28T15:39:22.808Z,9.90
2023-08-28T15:41:50.471Z,8.30
2023-08-28T15:44:18.214Z,10.00
2023-08-28T15:46:45.862Z,12.20
2023-08-28T15:49:14.577Z,12.20
2023-08-28T15:51:42.604Z,10.30
2023-08-28T15:54:10.154Z,9.60
2023-08-28T15:56:37.658Z,10.60
2023-08-28T15:59:14.319Z,10.40
2023-08-28T16:01:43.215Z,9.60
2023-08-28T16:04:11.151Z,9.90
2023-08-28T16:06:42.045Z,11.10
2023-08-28T16:09:13.563Z,10.90
2023-08-28T16:11:48.282Z,9.50
2023-08-28T16:14:16.133Z,10.60
2023-08-28T16:16:43.941Z,9.60
2023-08-28T16:19:14.993Z,10.90
2023-08-28T16:21:42.690Z,11.00
2023-08-28T16:24:10.231Z,9.90
2023-08-28T16:26:37.809Z,12.50
2023-08-28T16:29:05.452Z,9.90
2023-08-28T16:31:33.117Z,10.00
2023-08-28T16:34:01.142Z,10.80
2023-08-28T16:36:29.086Z,11.90
2023-08-28T16:39:00.223Z,10.20
2023-08-28T16:41:27.954Z,9.20
2023-08-28T16:43:55.553Z,9.50
2023-08-28T16:46:23.208Z,11.80
2023-08-28T16:48:51.201Z,11.90
2023-08-28T16:51:18.836Z,9.70
2023-08-28T16:53:46.464Z,15.70
2023-08-28T16:56:14.073Z,15.20
2023-08-28T16:58:41.685Z,38.60
2023-08-28T17:01:09.301Z,31.70
2023-08-28T17:03:36.922Z,16.40
2023-08-28T17:06:04.607Z,14.90
2023-08-28T17:08:32.180Z,14.50
2023-08-28T17:11:01.133Z,14.30
2023-08-28T17:13:28.691Z,13.50
2023-08-28T17:15:56.733Z,10.50
2023-08-28T17:18:24.436Z,13.00
2023-08-28T17:20:53.198Z,13.10
2023-08-28T17:23:20.785Z,11.50
2023-08-28T17:25:48.458Z,13.50
2023-08-28T17:28:16.881Z,15.00
2023-08-28T17:30:44.513Z,13.70
2023-08-28T17:33:12.106Z,14.40
2023-08-28T17:35:39.701Z,12.40
2023-08-28T17:38:07.401Z,13.00
2023-08-28T17:40:34.986Z,13.00
2023-08-28T17:43:02.904Z,14.90
2023-08-28T17:45:30.781Z,14.10
2023-08-28T17:47:58.375Z,12.70
2023-08-28T17:50:26.575Z,12.80
2023-08-28T17:52:54.396Z,15.80
2023-08-28T17:55:21.982Z,14.30
2023-08-28T17:57:49.584Z,12.80
2023-08-28T18:00:17.401Z,13.80
2023-08-28T18:03:00.074Z,14.20
2023-08-28T18:05:28.593Z,17.20
2023-08-28T18:07:56.794Z,13.40
2023-08-28T18:10:24.536Z,15.20
2023-08-28T18:12:52.076Z,14.70
2023-08-28T18:15:22.003Z,16.10
2023-08-28T18:17:51.153Z,15.90
2023-08-28T18:20:21.438Z,17.10
2023-08-28T18:22:49.160Z,21.50
2023-08-28T18:25:16.796Z,20.50
2023-08-28T18:28:00.605Z,18.80
2023-08-28T18:30:31.857Z,19.50
2023-08-28T18:33:00.772Z,18.20
2023-08-28T18:35:28.413Z,16.60
2023-08-28T18:37:58.693Z,17.50
2023-08-28T18:40:26.998Z,18.60
2023-08-28T18:42:55.633Z,19.60
2023-08-28T18:45:25.176Z,17.40
2023-08-28T18:47:54.570Z,19.10
2023-08-28T18:50:24.075Z,20.60
2023-08-28T18:52:51.715Z,18.20
2023-08-28T18:55:31.922Z,19.80
2023-08-28T19:00:31.805Z,19.70
2023-08-28T19:02:59.679Z,16.50
2023-08-28T19:05:27.458Z,19.10
2023-08-28T19:07:59.297Z,20.70
2023-08-28T19:10:40.217Z,17.50
2023-08-28T19:13:08.201Z,19.50
2023-08-28T19:15:35.856Z,18.80
2023-08-28T19:18:03.846Z,18.40
2023-08-28T19:20:38.523Z,17.70
2023-08-28T19:23:12.949Z,18.30
2023-08-28T19:25:40.573Z,18.70
2023-08-28T19:28:08.127Z,19.00
2023-08-28T19:30:35.782Z,21.30
2023-08-28T19:33:04.395Z,20.30
2023-08-28T19:35:32.028Z,17.90
2023-08-28T19:38:00.167Z,19.80
2023-08-28T19:40:27.839Z,17.00
2023-08-28T19:42:56.028Z,20.70
2023-08-28T19:45:23.654Z,17.00
2023-08-28T19:47:52.628Z,20.20
2023-08-28T19:50:22.734Z,18.90
2023-08-28T19:52:50.403Z,23.10
2023-08-28T19:55:18.019Z,20.00
2023-08-28T19:57:45.579Z,20.20
2023-08-28T20:00:20.651Z,20.60
2023-08-28T20:02:49.237Z,19.50
2023-08-28T20:05:16.871Z,19.00
2023-08-28T20:07:45.172Z,19.30
2023-08-28T20:10:12.776Z,17.90
2023-08-28T20:12:40.313Z,18.80
2023-08-28T20:15:08.508Z,18.00
2023-08-28T20:17:36.143Z,19.10
2023-08-28T20:20:07.447Z,18.70
2023-08-28T20:25:02.435Z,19.40
2023-08-28T20:27:30.301Z,21.70
2023-08-28T20:29:57.801Z,17.80
2023-08-28T20:32:25.348Z,19.80
2023-08-28T20:34:52.909Z,22.20
2023-08-28T20:37:20.497Z,17.20
2023-08-28T20:39:48.150Z,21.40
2023-08-28T20:42:15.660Z,19.20
2023-08-28T20:44:43.263Z,21.30
2023-08-28T20:47:10.987Z,21.40
2023-08-28T20:49:38.616Z,20.30
2023-08-28T20:52:06.219Z,20.30
2023-08-28T20:54:33.893Z,17.70
2023-08-28T20:57:01.393Z,18.90
2023-08-28T20:59:29.186Z,20.10
2023-08-28T21:01:57.100Z,22.50
2023-08-28T21:04:25.129Z,21.40
2023-08-28T21:06:52.658Z,21.00
2023-08-28T21:09:20.223Z,22.20
2023-08-28T21:11:47.838Z,25.00
2023-08-28T21:14:15.435Z,25.40
2023-08-28T21:16:43.012Z,23.60
2023-08-28T21:19:18.008Z,24.20
2023-08-28T21:21:45.657Z,24.20
2023-08-28T21:24:13.188Z,20.90
2023-08-28T21:26:40.817Z,25.20
2023-08-28T21:29:08.407Z,21.40
2023-08-28T21:31:35.957Z,20.20
2023-08-28T21:34:03.525Z,21.60
2023-08-28T21:36:31.146Z,23.60
2023-08-28T21:38:58.735Z,21.80
2023-08-28T21:41:26.228Z,21.80
2023-08-28T21:43:53.893Z,20.70
2023-08-28T21:46:21.524Z,23.90
2023-08-28T21:48:49.036Z,22.30
2023-08-28T21:51:35.372Z,20.60
2023-08-28T21:54:21.568Z,21.10
2023-08-28T21:57:08.290Z,20.60
2023-08-28T21:59:54.417Z,19.30
2023-08-28T22:02:40.888Z,20.80
2023-08-28T22:05:27.114Z,23.40
2023-08-28T22:07:54.595Z,19.90
2023-08-28T22:10:26.015Z,23.40
2023-08-28T22:13:16.613Z,22.10
2023-08-28T22:15:44.538Z,23.40
2023-08-28T22:18:12.538Z,22.40
2023-08-28T22:20:43.280Z,21.20
2023-08-28T22:23:12.098Z,20.30
2023-08-28T22:25:43.264Z,21.30
2023-08-28T22:28:12.864Z,20.80
2023-08-28T22:30:42.300Z,19.60
2023-08-28T22:33:09.991Z,18.60
2023-08-28T22:35:37.659Z,19.60
2023-08-28T22:38:05.985Z,23.80
2023-08-28T22:40:34.133Z,19.70
2023-08-28T22:43:01.629Z,19.70
2023-08-28T22:45:29.217Z,22.10
2023-08-28T22:47:56.829Z,20.30
2023-08-28T22:50:24.472Z,20.10
2023-08-28T22:52:52.079Z,19.70
2023-08-28T22:55:19.820Z,20.00
2023-08-28T22:57:47.913Z,19.80
2023-08-28T23:00:15.732Z,20.00
2023-08-28T23:02:43.732Z,19.80
2023-08-28T23:05:11.828Z,19.90
2023-08-28T23:07:39.533Z,19.20
2023-08-28T23:10:08.404Z,19.80
2023-08-28T23:12:35.971Z,20.30
2023-08-28T23:15:03.863Z,20.60
2023-08-28T23:17:31.670Z,20.20
2023-08-28T23:19:59.519Z,20.70
2023-08-28T23:22:27.100Z,21.50
2023-08-28T23:24:54.717Z,21.20
2023-08-28T23:27:22.319Z,24.00
2023-08-28T23:29:49.865Z,21.10
2023-08-28T23:32:17.438Z,20.30
2023-08-28T23:34:45.653Z,21.80
2023-08-28T23:37:13.317Z,20.90
2023-08-28T23:39:40.955Z,21.20
2023-08-28T23:42:08.498Z,21.30
2023-08-28T23:44:36.102Z,21.80
2023-08-28T23:47:03.696Z,21.90
2023-08-28T23:49:31.269Z,22.30
2023-08-28T23:51:58.851Z,22.60
2023-08-28T23:54:26.447Z,21.80
2023-08-28T23:56:53.975Z,22.70
2023-08-28T23:59:21.568Z,21.80
